Adrian, OR

11:43 AM MST on December 21, 2014 (GMT -0700)
Homedale 3SW | Change Station
CLOSE
Current Station
Personal Weather Station
Location: Homedale, 3 SW, ID
Elevation: 2365 ft
Nearby Weather Stations

Elev 2365 ft 43.57 °N, 116.97 °W | Updated 0 second ago

Rain
Rain
49.9 °F
Feels Like 49 °F
N
4.0
Wind Variable Wind from North
Gusts 5.0 mph

Today
High -- | Low -- °F
--% Chance of Precip.
Yesterday
High -- | Low -- °F
Precip. -- in
8:18 AM 5:14 PM
Waning Crescent, 0% visible
Pressure 29.94 in
Visibility 10.0 miles
Clouds Mostly Cloudy 3000 ft
Overcast 3700 ft
Windchill 49 °F
Dew Point 45 °F
Humidity 83%
Rainfall 0.00 in
Snow Depth Not available.
UV 1 out of 12
Pollen .10 out of 12
Air Quality Not available.
Flu Activity Not available.
METAR KEUL 211835Z AUTO 28007KT 10SM BKN030 OVC037 08/04 A2994 RMK AO1 P0001

More Conditions Fewer Conditions

Pressure 29.94 in
Visibility 10.0 miles
Clouds Mostly Cloudy 3000 ft
Overcast 3700 ft
Windchill 49 °F
Dew Point 45 °F
Humidity 83%
Rainfall 0.00 in
Snow Depth Not available.
UV 1 out of 12
Pollen .10 out of 12
Air Quality Not available.
Flu Activity Not available.
METAR KEUL 211835Z AUTO 28007KT 10SM BKN030 OVC037 08/04 A2994 RMK AO1 P0001

More Conditions Fewer Conditions

10-Day Weather Forecast

Almanac

Astronomy

Dec. 21, 2014 Rise Set
Actual Time
Civil Twilight
Nautical Twilight
Astronomical Twilight
Moon
Length of Visible Light
Length of Day
Tomorrow will be .
, % of the Moon is Illuminated

Today's Extremes

State Highs State Lows

Community

WunderPhotos

Upload Photos

1,779,451 photos uploaded!

WunderBlogs® & News

Nearby

Air Quality

  Air Quality AQ Index Pollutant
Not available.

Snow Depth

Station Depth Elevation

Earthquake Activity

City Distance Mag. Time & Date
Minimum magnitude displayed is 2.5.

Coastal Water Temperatures

Place Temperature

Nearby Weather Stations